createdAt,value
2023-06-26T00:00:41.735Z,69.959
2023-06-26T00:02:41.364Z,70.108
2023-06-26T00:03:42.108Z,70.139
2023-06-26T00:04:41.800Z,70.936
2023-06-26T00:05:41.289Z,70.532
2023-06-26T00:06:41.700Z,70.905
2023-06-26T00:07:41.365Z,70.682
2023-06-26T00:08:41.767Z,69.629
2023-06-26T00:09:41.198Z,71.008
2023-06-26T00:10:42.048Z,70.526
2023-06-26T00:11:41.362Z,71.150
2023-06-26T00:12:42.132Z,70.686
2023-06-26T00:13:41.543Z,69.628
2023-06-26T00:14:40.857Z,71.243
2023-06-26T00:15:41.270Z,69.761
2023-06-26T00:16:41.749Z,71.207
2023-06-26T00:17:41.818Z,71.274
2023-06-26T00:20:42.031Z,71.874
2023-06-26T00:21:41.415Z,71.665
2023-06-26T00:22:41.785Z,71.192
2023-06-26T00:23:44.959Z,71.459
2023-06-26T00:26:41.444Z,71.739
2023-06-26T00:27:41.859Z,71.174
2023-06-26T00:28:41.343Z,71.586
2023-06-26T00:29:41.733Z,71.546
2023-06-26T00:30:42.207Z,71.426
2023-06-26T00:31:42.181Z,71.691
2023-06-26T00:32:43.151Z,71.512
2023-06-26T00:33:40.855Z,71.277
2023-06-26T00:34:41.246Z,71.413
2023-06-26T00:35:41.774Z,72.204
2023-06-26T00:36:41.315Z,71.508
2023-06-26T00:37:41.683Z,71.039
2023-06-26T00:38:41.189Z,71.558
2023-06-26T00:39:41.649Z,72.235
2023-06-26T00:40:41.805Z,72.208
2023-06-26T00:41:41.161Z,72.433
2023-06-26T00:42:41.553Z,72.235
2023-06-26T00:43:40.944Z,72.531
2023-06-26T00:44:41.348Z,72.275
2023-06-26T00:45:48.995Z,72.643
2023-06-26T00:47:42.099Z,72.326
2023-06-26T00:48:42.715Z,72.834
2023-06-26T00:49:41.725Z,72.935
2023-06-26T00:50:41.093Z,72.788
2023-06-26T00:51:41.536Z,73.406
2023-06-26T00:53:41.417Z,73.126
2023-06-26T00:54:40.958Z,73.353
2023-06-26T00:55:41.461Z,73.572
2023-06-26T00:56:40.857Z,73.809
2023-06-26T00:57:41.301Z,73.820
2023-06-26T00:58:41.795Z,73.583
2023-06-26T00:59:41.170Z,72.965
2023-06-26T01:00:43.027Z,74.211
2023-06-26T01:01:41.594Z,74.083
2023-06-26T01:02:41.178Z,73.747
2023-06-26T01:03:41.237Z,72.975
2023-06-26T01:04:41.752Z,73.862
2023-06-26T01:05:41.023Z,73.925
2023-06-26T01:06:42.137Z,74.047
2023-06-26T01:07:41.688Z,73.908
2023-06-26T01:08:41.243Z,74.005
2023-06-26T01:09:41.710Z,73.891
2023-06-26T01:10:41.818Z,73.936
2023-06-26T01:11:41.319Z,73.770
2023-06-26T01:12:41.736Z,73.973
2023-06-26T01:14:41.716Z,73.822
2023-06-26T01:15:41.322Z,74.022
2023-06-26T01:16:41.989Z,74.112
2023-06-26T01:17:42.044Z,74.245
2023-06-26T01:18:41.669Z,74.257
2023-06-26T01:19:41.024Z,74.392
2023-06-26T01:20:41.853Z,74.142
2023-06-26T01:21:41.211Z,74.310
2023-06-26T01:22:41.745Z,74.203
2023-06-26T01:23:41.107Z,74.041
2023-06-26T01:24:41.467Z,73.871
2023-06-26T01:25:41.434Z,73.625
2023-06-26T01:26:41.444Z,74.089
2023-06-26T01:27:40.830Z,73.749
2023-06-26T01:28:41.288Z,74.158
2023-06-26T01:29:41.712Z,74.299
2023-06-26T01:30:41.672Z,74.053
2023-06-26T01:31:41.108Z,74.104
2023-06-26T01:32:42.114Z,74.148
2023-06-26T01:33:41.694Z,73.908
2023-06-26T01:34:41.050Z,73.946
2023-06-26T01:35:41.498Z,73.963
2023-06-26T01:36:40.940Z,73.625
2023-06-26T01:37:41.375Z,73.538
2023-06-26T01:38:41.901Z,74.238
2023-06-26T01:39:41.278Z,74.093
2023-06-26T01:40:42.545Z,74.482
2023-06-26T01:41:41.048Z,73.959
2023-06-26T01:42:41.372Z,74.167
2023-06-26T01:43:41.915Z,74.819
2023-06-26T01:44:41.444Z,74.194
2023-06-26T01:45:40.913Z,75.014
2023-06-26T01:46:44.133Z,74.972
2023-06-26T01:47:41.822Z,75.115
2023-06-26T01:48:41.421Z,74.716
2023-06-26T01:49:41.807Z,75.195
2023-06-26T01:50:41.743Z,75.161
2023-06-26T01:51:41.185Z,75.434
2023-06-26T01:52:41.593Z,74.781
2023-06-26T01:53:40.974Z,75.016
2023-06-26T01:54:41.298Z,75.174
2023-06-26T01:55:41.749Z,75.512
2023-06-26T01:56:41.153Z,75.533
2023-06-26T01:57:41.600Z,75.207
2023-06-26T01:58:41.121Z,75.197
2023-06-26T01:59:41.648Z,75.064
2023-06-26T02:00:41.755Z,75.571
2023-06-26T02:01:41.641Z,75.476
2023-06-26T02:03:41.664Z,75.050
2023-06-26T02:04:41.281Z,74.798
2023-06-26T02:05:41.720Z,75.130
2023-06-26T02:06:41.942Z,75.168
2023-06-26T02:07:41.614Z,75.222
2023-06-26T02:08:41.124Z,74.917
2023-06-26T02:09:41.518Z,75.277
2023-06-26T02:10:41.606Z,75.279
2023-06-26T02:11:41.401Z,75.388
2023-06-26T02:12:41.819Z,75.336
2023-06-26T02:15:40.933Z,75.722
2023-06-26T02:16:41.306Z,75.621
2023-06-26T02:17:41.926Z,75.479
2023-06-26T02:18:41.639Z,75.643
2023-06-26T02:19:41.107Z,75.521
2023-06-26T02:20:41.858Z,75.680
2023-06-26T02:21:41.325Z,75.601
2023-06-26T02:22:41.712Z,75.357
2023-06-26T02:24:41.761Z,75.518
2023-06-26T02:25:41.240Z,75.798
2023-06-26T02:26:41.628Z,75.886
2023-06-26T02:27:41.431Z,75.832
2023-06-26T02:28:40.867Z,75.432
2023-06-26T02:29:41.323Z,76.069
2023-06-26T02:30:42.770Z,76.238
2023-06-26T02:31:41.767Z,76.298
2023-06-26T02:32:41.358Z,76.315
2023-06-26T02:33:40.957Z,76.382
2023-06-26T02:34:41.362Z,76.422
2023-06-26T02:35:41.795Z,76.561
2023-06-26T02:36:41.202Z,76.134
2023-06-26T02:37:41.615Z,76.517
2023-06-26T02:39:41.790Z,76.254
2023-06-26T02:40:42.048Z,76.296
2023-06-26T02:42:41.105Z,76.294
2023-06-26T02:43:41.503Z,76.404
2023-06-26T02:44:40.946Z,76.485
2023-06-26T02:45:41.340Z,76.700
2023-06-26T02:46:41.934Z,76.511
2023-06-26T02:47:41.679Z,76.593
2023-06-26T02:48:41.340Z,76.784
2023-06-26T02:49:41.710Z,77.021
2023-06-26T02:50:41.835Z,77.051
2023-06-26T02:52:41.697Z,77.366
2023-06-26T02:53:41.126Z,77.482
2023-06-26T02:54:41.525Z,77.347
2023-06-26T02:55:40.991Z,76.935
2023-06-26T02:56:48.114Z,77.085
2023-06-26T02:57:41.001Z,77.408
2023-06-26T02:58:41.415Z,77.433
2023-06-26T02:59:41.789Z,77.358
2023-06-26T03:00:42.318Z,77.139
2023-06-26T03:01:41.237Z,77.377
2023-06-26T03:02:41.794Z,77.322
2023-06-26T03:03:41.810Z,77.392
2023-06-26T03:04:41.615Z,77.442
2023-06-26T03:07:41.237Z,77.751
2023-06-26T03:08:41.810Z,78.022
2023-06-26T03:09:41.192Z,77.909
2023-06-26T03:10:42.616Z,77.978
2023-06-26T03:11:41.179Z,77.909
2023-06-26T03:12:41.585Z,77.934
2023-06-26T03:13:41.016Z,78.230
2023-06-26T03:14:41.408Z,77.726
2023-06-26T03:16:41.764Z,78.468
2023-06-26T03:17:41.390Z,78.199
2023-06-26T03:18:41.041Z,77.515
2023-06-26T03:20:42.415Z,78.178
2023-06-26T03:21:41.786Z,78.497
2023-06-26T03:22:41.125Z,78.676
2023-06-26T03:23:41.602Z,78.504
2023-06-26T03:24:40.978Z,78.411
2023-06-26T03:25:41.745Z,78.575
2023-06-26T03:26:41.109Z,78.346
2023-06-26T03:27:41.582Z,78.249
2023-06-26T03:28:40.957Z,77.799
2023-06-26T03:29:41.303Z,78.249
2023-06-26T03:30:42.550Z,78.312
2023-06-26T03:31:41.170Z,78.268
2023-06-26T03:32:41.711Z,78.176
2023-06-26T03:33:41.367Z,78.167
2023-06-26T03:34:41.796Z,77.864
2023-06-26T03:35:41.213Z,77.722
2023-06-26T03:36:41.724Z,77.667
2023-06-26T03:37:41.123Z,77.455
2023-06-26T03:38:41.545Z,77.284
2023-06-26T03:40:42.328Z,76.736
2023-06-26T03:41:40.838Z,77.188
2023-06-26T03:42:41.244Z,77.053
2023-06-26T03:43:41.746Z,76.677
2023-06-26T03:44:41.112Z,76.637
2023-06-26T03:45:41.474Z,76.416
2023-06-26T03:46:41.148Z,76.153
2023-06-26T03:48:41.572Z,76.015
2023-06-26T03:49:41.060Z,75.571
2023-06-26T03:50:42.095Z,75.352
2023-06-26T03:51:41.483Z,75.052
2023-06-26T03:53:41.231Z,74.715
2023-06-26T03:54:41.681Z,74.312
2023-06-26T03:55:41.638Z,74.291
2023-06-26T03:56:41.476Z,73.931
2023-06-26T03:57:40.900Z,73.974
2023-06-26T03:58:41.542Z,73.955
2023-06-26T03:59:40.951Z,74.228
2023-06-26T04:00:41.355Z,74.245
2023-06-26T04:01:42.083Z,74.112
2023-06-26T04:02:41.530Z,74.104
2023-06-26T04:03:41.411Z,73.807
2023-06-26T04:04:41.188Z,73.679
2023-06-26T04:05:41.990Z,73.168
2023-06-26T04:08:41.447Z,72.082
2023-06-26T04:09:41.856Z,71.567
2023-06-26T04:10:41.214Z,71.239
2023-06-26T04:11:41.598Z,70.585
2023-06-26T04:12:41.005Z,70.635
2023-06-26T04:13:41.470Z,70.112
2023-06-26T04:14:40.915Z,69.675
2023-06-26T04:15:41.517Z,69.656
2023-06-26T04:16:40.921Z,69.227
2023-06-26T04:17:41.686Z,69.111
2023-06-26T04:20:41.586Z,68.748
2023-06-26T04:21:40.962Z,68.767
2023-06-26T04:22:41.363Z,68.432
2023-06-26T04:23:41.836Z,68.302
2023-06-26T04:25:42.469Z,68.456
2023-06-26T04:26:40.917Z,67.440
2023-06-26T04:27:44.824Z,66.728
2023-06-26T04:30:41.794Z,65.761
2023-06-26T04:31:41.736Z,65.054
2023-06-26T04:32:41.449Z,64.460
2023-06-26T04:33:44.368Z,64.520
2023-06-26T04:35:41.252Z,64.436
2023-06-26T04:36:41.641Z,63.965
2023-06-26T04:37:40.989Z,63.739
2023-06-26T04:38:41.379Z,63.432
2023-06-26T04:39:41.796Z,63.085
2023-06-26T04:40:41.747Z,63.423
2023-06-26T04:41:41.132Z,62.839
2023-06-26T04:42:41.105Z,63.629
2023-06-26T04:43:41.610Z,62.671
2023-06-26T04:44:41.038Z,63.179
2023-06-26T04:45:41.640Z,62.969
2023-06-26T04:46:41.248Z,62.429
2023-06-26T04:47:41.877Z,62.637
2023-06-26T04:48:41.732Z,62.559
2023-06-26T04:49:44.418Z,62.538
2023-06-26T04:51:41.208Z,62.336
2023-06-26T04:52:41.601Z,61.943
2023-06-26T04:53:41.058Z,61.531
2023-06-26T04:54:41.509Z,61.557
2023-06-26T04:55:43.565Z,60.968
2023-06-26T04:56:41.211Z,61.061
2023-06-26T04:57:41.755Z,59.673
2023-06-26T05:01:43.690Z,59.934
2023-06-26T05:02:41.573Z,59.578
2023-06-26T05:03:42.129Z,59.730
2023-06-26T05:04:40.842Z,59.501
2023-06-26T05:05:41.656Z,59.206
2023-06-26T05:07:41.708Z,58.792
2023-06-26T05:08:41.087Z,58.263
2023-06-26T05:09:41.698Z,57.783
2023-06-26T05:10:41.530Z,57.394
2023-06-26T05:11:40.910Z,57.226
2023-06-26T05:12:41.326Z,56.797
2023-06-26T05:13:41.764Z,57.712
2023-06-26T05:14:41.543Z,56.827
2023-06-26T05:15:40.875Z,57.210
2023-06-26T05:16:41.766Z,56.512
2023-06-26T05:17:42.012Z,56.182
2023-06-26T05:18:41.988Z,55.658
2023-06-26T05:19:41.952Z,55.110
2023-06-26T05:20:42.971Z,55.406
2023-06-26T05:21:42.060Z,55.000
2023-06-26T05:22:41.602Z,54.594
2023-06-26T05:23:40.942Z,54.170
2023-06-26T05:24:41.441Z,54.468
2023-06-26T05:27:41.075Z,53.150
2023-06-26T05:28:41.679Z,53.678
2023-06-26T05:29:44.311Z,54.281
2023-06-26T05:30:42.270Z,54.138
2023-06-26T05:32:42.000Z,53.413
2023-06-26T05:33:41.729Z,52.942
2023-06-26T05:35:41.898Z,53.676
2023-06-26T05:36:41.479Z,53.504
2023-06-26T05:37:40.874Z,52.240
2023-06-26T05:38:41.484Z,52.482
2023-06-26T05:39:40.933Z,52.000
2023-06-26T05:40:42.372Z,52.446
2023-06-26T05:41:40.905Z,52.951
2023-06-26T05:42:41.408Z,53.285
2023-06-26T05:43:41.002Z,52.753
2023-06-26T05:44:41.456Z,52.648
2023-06-26T05:45:40.907Z,52.064
2023-06-26T05:46:41.536Z,52.658
2023-06-26T05:47:41.475Z,51.952
2023-06-26T05:48:41.602Z,51.630
2023-06-26T05:49:40.982Z,51.673
2023-06-26T05:50:42.302Z,51.715
2023-06-26T05:51:41.209Z,52.030
2023-06-26T05:52:41.665Z,51.666
2023-06-26T05:53:41.153Z,50.615
2023-06-26T05:54:41.634Z,51.256
2023-06-26T05:55:40.995Z,51.147
2023-06-26T05:56:43.276Z,50.254
2023-06-26T05:57:41.364Z,49.552
2023-06-26T05:58:41.728Z,49.957
2023-06-26T05:59:41.117Z,49.169
2023-06-26T06:00:42.057Z,48.660
2023-06-26T06:02:41.496Z,48.013
2023-06-26T06:03:41.318Z,48.612
2023-06-26T06:04:41.400Z,47.277
2023-06-26T06:05:41.879Z,46.913
2023-06-26T06:06:41.309Z,47.397
2023-06-26T06:07:41.905Z,46.787
2023-06-26T06:08:41.373Z,46.268
2023-06-26T06:09:40.975Z,46.602
2023-06-26T06:10:42.078Z,46.169
2023-06-26T06:12:41.083Z,46.106
2023-06-26T06:13:41.665Z,46.306
2023-06-26T06:14:41.052Z,46.073
2023-06-26T06:15:41.522Z,45.776
2023-06-26T06:16:41.048Z,46.001
2023-06-26T06:17:41.724Z,45.665
2023-06-26T06:18:41.283Z,45.221
2023-06-26T06:19:41.749Z,45.045
2023-06-26T06:20:42.014Z,45.513
2023-06-26T06:22:41.066Z,45.015
2023-06-26T06:23:41.756Z,44.967
2023-06-26T06:24:41.220Z,44.181
2023-06-26T06:25:41.667Z,44.109
2023-06-26T06:26:41.033Z,43.557
2023-06-26T06:27:41.474Z,43.647
2023-06-26T06:28:40.813Z,43.804
2023-06-26T06:29:41.276Z,43.765
2023-06-26T06:30:52.266Z,44.450
2023-06-26T06:32:42.004Z,42.817
2023-06-26T06:33:41.561Z,41.871
2023-06-26T06:34:41.051Z,42.220
2023-06-26T06:35:41.592Z,41.112
2023-06-26T06:36:40.970Z,42.033
2023-06-26T06:37:42.143Z,40.910
2023-06-26T06:38:41.570Z,40.983
2023-06-26T06:39:40.980Z,41.068
2023-06-26T06:40:42.235Z,40.698
2023-06-26T06:41:43.035Z,41.635
2023-06-26T06:42:41.395Z,41.221
2023-06-26T06:43:40.909Z,40.769
2023-06-26T06:44:41.418Z,41.511
2023-06-26T06:45:40.930Z,40.777
2023-06-26T06:46:41.356Z,40.876
2023-06-26T06:49:41.115Z,40.702
2023-06-26T06:50:42.590Z,41.000
2023-06-26T06:51:41.058Z,40.973
2023-06-26T06:52:41.640Z,42.033
2023-06-26T06:53:41.119Z,40.508
2023-06-26T06:54:41.554Z,41.141
2023-06-26T06:55:41.011Z,42.209
2023-06-26T06:56:41.443Z,41.417
2023-06-26T06:59:40.892Z,39.565
2023-06-26T07:00:42.517Z,39.882
2023-06-26T07:01:41.068Z,39.649
2023-06-26T07:02:41.849Z,41.292
2023-06-26T07:03:42.564Z,40.370
2023-06-26T07:04:41.603Z,39.640
2023-06-26T07:05:41.098Z,39.956
2023-06-26T07:06:41.698Z,40.248
2023-06-26T07:09:41.500Z,39.632
2023-06-26T07:10:41.642Z,38.394
2023-06-26T07:13:41.320Z,38.503
2023-06-26T07:15:42.131Z,40.384
2023-06-26T07:16:42.257Z,38.091
2023-06-26T07:17:42.045Z,37.477
2023-06-26T07:18:41.741Z,37.996
2023-06-26T07:21:41.783Z,37.500
2023-06-26T07:22:41.268Z,38.789
2023-06-26T07:23:41.808Z,39.037
2023-06-26T07:24:41.362Z,37.671
2023-06-26T07:26:53.744Z,37.427
2023-06-26T07:27:41.160Z,36.836
2023-06-26T07:28:41.641Z,36.346
2023-06-26T07:29:41.054Z,37.410
2023-06-26T07:30:41.678Z,36.264
2023-06-26T07:31:41.868Z,35.428
2023-06-26T07:32:41.928Z,35.062
2023-06-26T07:34:41.064Z,35.670
2023-06-26T07:35:41.428Z,37.624
2023-06-26T07:36:41.901Z,37.517
2023-06-26T07:37:42.611Z,36.866
2023-06-26T07:38:41.105Z,36.893
2023-06-26T07:39:41.608Z,34.967
2023-06-26T07:40:41.927Z,36.308
2023-06-26T07:42:42.542Z,35.283
2023-06-26T07:43:41.050Z,36.027
2023-06-26T07:44:41.477Z,35.184
2023-06-26T07:45:40.937Z,34.438
2023-06-26T07:46:41.530Z,34.221
2023-06-26T07:47:41.320Z,34.389
2023-06-26T07:48:41.872Z,34.347
2023-06-26T07:51:41.461Z,34.375
2023-06-26T07:52:41.005Z,33.925
2023-06-26T07:53:41.503Z,34.665
2023-06-26T07:54:41.033Z,34.053
2023-06-26T07:55:40.994Z,34.455
2023-06-26T07:56:41.532Z,33.534
2023-06-26T07:57:41.078Z,35.297
2023-06-26T07:58:42.905Z,33.954
2023-06-26T07:59:41.453Z,35.413
2023-06-26T08:00:41.360Z,34.410
2023-06-26T08:01:41.333Z,34.135
2023-06-26T08:02:42.107Z,34.002
2023-06-26T08:03:45.883Z,34.024
2023-06-26T08:04:41.226Z,33.948
2023-06-26T08:05:41.699Z,33.097
2023-06-26T08:08:41.276Z,34.509
2023-06-26T08:09:42.457Z,33.204
2023-06-26T08:10:41.593Z,32.912
2023-06-26T08:12:41.712Z,32.355
2023-06-26T08:13:41.170Z,33.904
2023-06-26T08:14:41.721Z,35.213
2023-06-26T08:15:41.158Z,34.341
2023-06-26T08:16:41.556Z,33.488
2023-06-26T08:17:41.386Z,33.273
2023-06-26T08:18:41.846Z,33.870
2023-06-26T08:19:41.280Z,32.901
2023-06-26T08:20:42.891Z,32.609
2023-06-26T08:21:41.365Z,32.258
2023-06-26T08:22:40.887Z,33.200
2023-06-26T08:23:41.304Z,32.495
2023-06-26T08:24:41.819Z,31.127
2023-06-26T08:25:41.458Z,31.488
2023-06-26T08:26:40.882Z,32.516
2023-06-26T08:27:41.342Z,33.456
2023-06-26T08:28:41.825Z,32.235
2023-06-26T08:29:41.385Z,32.739
2023-06-26T08:30:43.001Z,31.217
2023-06-26T08:31:42.032Z,31.530
2023-06-26T08:33:42.349Z,32.289
2023-06-26T08:34:42.513Z,32.424
2023-06-26T08:35:40.999Z,30.952
2023-06-26T08:36:41.674Z,32.066
2023-06-26T08:37:41.085Z,32.033
2023-06-26T08:38:41.517Z,31.173
2023-06-26T08:39:40.981Z,32.426
2023-06-26T08:40:41.995Z,30.889
2023-06-26T08:41:41.487Z,31.699
2023-06-26T08:42:42.178Z,32.325
2023-06-26T08:43:41.606Z,30.900
2023-06-26T08:45:01.031Z,30.398
2023-06-26T08:46:41.305Z,30.761
2023-06-26T08:47:42.141Z,30.580
2023-06-26T08:49:41.364Z,29.880
2023-06-26T08:50:42.599Z,30.629
2023-06-26T08:51:41.423Z,30.549
2023-06-26T08:52:42.298Z,31.598
2023-06-26T08:53:41.804Z,30.681
2023-06-26T08:54:41.336Z,29.782
2023-06-26T08:55:41.952Z,29.174
2023-06-26T08:56:41.537Z,30.196
2023-06-26T08:57:41.157Z,29.441
2023-06-26T08:58:44.481Z,29.273
2023-06-26T08:59:41.014Z,29.147
2023-06-26T09:00:42.423Z,28.901
2023-06-26T09:01:41.357Z,29.054
2023-06-26T09:02:43.400Z,29.025
2023-06-26T09:03:41.519Z,28.159
2023-06-26T09:04:41.472Z,28.239
2023-06-26T09:05:40.997Z,28.394
2023-06-26T09:06:41.231Z,27.907
2023-06-26T09:07:41.740Z,29.210
2023-06-26T09:08:41.794Z,30.271
2023-06-26T09:09:41.238Z,29.750
2023-06-26T09:10:43.397Z,28.350
2023-06-26T09:11:41.566Z,28.056
2023-06-26T09:12:41.114Z,28.567
2023-06-26T09:13:41.595Z,27.772
2023-06-26T09:14:41.040Z,30.084
2023-06-26T09:15:42.268Z,28.962
2023-06-26T09:16:41.146Z,28.169
2023-06-26T09:17:42.022Z,27.980
2023-06-26T09:18:41.653Z,29.290
2023-06-26T09:19:41.317Z,28.609
2023-06-26T09:20:42.197Z,29.662
2023-06-26T09:22:41.559Z,27.928
2023-06-26T09:23:41.060Z,27.433
2023-06-26T09:24:41.516Z,27.629
2023-06-26T09:25:45.295Z,27.408
2023-06-26T09:27:41.206Z,26.404
2023-06-26T09:28:41.415Z,27.654
2023-06-26T09:29:40.868Z,26.914
2023-06-26T09:30:42.097Z,25.920
2023-06-26T09:31:48.541Z,25.683
2023-06-26T09:34:41.827Z,25.855
2023-06-26T09:35:41.306Z,26.811
2023-06-26T09:36:45.617Z,25.994
2023-06-26T09:39:41.827Z,26.427
2023-06-26T09:40:42.404Z,25.415
2023-06-26T09:41:41.329Z,25.922
2023-06-26T09:42:41.758Z,26.622
2023-06-26T09:43:42.438Z,25.025
2023-06-26T09:44:40.889Z,27.593
2023-06-26T09:45:41.342Z,26.225
2023-06-26T09:46:41.133Z,28.190
2023-06-26T09:47:41.747Z,28.474
2023-06-26T09:48:41.335Z,29.039
2023-06-26T09:49:41.577Z,28.993
2023-06-26T09:51:42.288Z,26.658
2023-06-26T09:52:42.266Z,26.515
2023-06-26T09:53:41.876Z,27.759
2023-06-26T09:54:41.457Z,27.469
2023-06-26T09:55:41.444Z,27.015
2023-06-26T09:58:40.969Z,27.457
2023-06-26T09:59:41.471Z,26.424
2023-06-26T10:00:42.934Z,26.801
2023-06-26T10:02:41.723Z,27.871
2023-06-26T10:03:42.266Z,28.487
2023-06-26T10:04:41.600Z,28.945
2023-06-26T10:05:41.112Z,29.109
2023-06-26T10:06:41.832Z,30.334
2023-06-26T10:07:41.550Z,29.512
2023-06-26T10:08:41.056Z,29.058
2023-06-26T10:09:41.478Z,28.773
2023-06-26T10:10:41.748Z,27.310
2023-06-26T10:13:41.468Z,28.329
2023-06-26T10:14:41.041Z,26.776
2023-06-26T10:15:41.428Z,27.362
2023-06-26T10:16:41.127Z,28.047
2023-06-26T10:17:41.411Z,27.375
2023-06-26T10:18:41.011Z,26.261
2023-06-26T10:19:41.660Z,27.406
2023-06-26T10:20:42.037Z,29.367
2023-06-26T10:21:41.977Z,29.649
2023-06-26T10:22:41.368Z,28.255
2023-06-26T10:23:41.960Z,27.934
2023-06-26T10:24:43.194Z,27.370
2023-06-26T10:25:41.697Z,27.381
2023-06-26T10:26:41.121Z,27.314
2023-06-26T10:27:41.677Z,27.873
2023-06-26T10:30:41.524Z,27.688
2023-06-26T10:31:41.692Z,27.492
2023-06-26T10:32:41.414Z,26.563
2023-06-26T10:33:41.056Z,25.643
2023-06-26T10:34:41.504Z,26.622
2023-06-26T10:35:40.855Z,27.650
2023-06-26T10:36:41.322Z,27.881
2023-06-26T10:37:41.859Z,26.834
2023-06-26T10:38:41.317Z,25.847
2023-06-26T10:39:41.550Z,25.403
2023-06-26T10:40:41.804Z,25.935
2023-06-26T10:42:00.371Z,26.834
2023-06-26T10:42:41.066Z,27.196
2023-06-26T10:43:41.548Z,26.038
2023-06-26T10:44:41.100Z,26.532
2023-06-26T10:45:41.618Z,26.292
2023-06-26T10:46:41.170Z,25.954
2023-06-26T10:47:41.803Z,25.640
2023-06-26T10:48:41.344Z,25.697
2023-06-26T10:49:41.795Z,25.126
2023-06-26T10:50:41.899Z,25.765
2023-06-26T10:51:41.776Z,26.206
2023-06-26T10:52:41.259Z,25.687
2023-06-26T10:53:41.899Z,26.578
2023-06-26T10:54:41.377Z,26.023
2023-06-26T10:55:40.937Z,25.147
2023-06-26T10:56:41.638Z,25.891
2023-06-26T10:57:41.265Z,25.390
2023-06-26T10:58:42.168Z,25.794
2023-06-26T11:00:42.099Z,27.139
2023-06-26T11:01:42.132Z,26.559
2023-06-26T11:02:41.749Z,27.736
2023-06-26T11:03:41.628Z,28.779
2023-06-26T11:04:41.395Z,28.094
2023-06-26T11:05:41.185Z,27.989
2023-06-26T11:06:41.586Z,28.239
2023-06-26T11:07:42.968Z,27.755
2023-06-26T11:08:41.644Z,28.001
2023-06-26T11:09:41.233Z,27.139
2023-06-26T11:10:42.666Z,27.522
2023-06-26T11:11:41.049Z,25.077
2023-06-26T11:12:41.608Z,25.390
2023-06-26T11:13:41.218Z,26.588
2023-06-26T11:14:41.716Z,27.261
2023-06-26T11:15:41.326Z,26.471
2023-06-26T11:16:40.908Z,26.578
2023-06-26T11:17:41.745Z,26.284
2023-06-26T11:19:41.096Z,26.181
2023-06-26T11:20:42.412Z,27.307
2023-06-26T11:21:41.855Z,28.089
2023-06-26T11:22:41.335Z,27.255
2023-06-26T11:23:41.905Z,26.679
2023-06-26T11:24:41.327Z,26.063
2023-06-26T11:25:46.178Z,27.103
2023-06-26T11:26:41.549Z,27.043
2023-06-26T11:30:42.108Z,26.242
2023-06-26T11:31:42.048Z,25.651
2023-06-26T11:32:41.746Z,25.817
2023-06-26T11:33:41.424Z,26.099
2023-06-26T11:34:40.816Z,25.275
2023-06-26T11:35:41.398Z,25.672
2023-06-26T11:36:41.876Z,25.859
2023-06-26T11:37:41.419Z,25.546
2023-06-26T11:38:40.850Z,25.466
2023-06-26T11:39:41.270Z,25.842
2023-06-26T11:40:42.783Z,25.804
2023-06-26T11:41:41.488Z,25.870
2023-06-26T11:42:40.939Z,25.960
2023-06-26T11:43:41.575Z,25.762
2023-06-26T11:44:40.988Z,26.836
2023-06-26T11:45:41.609Z,27.000
2023-06-26T11:46:41.006Z,27.137
2023-06-26T11:47:41.801Z,26.885
2023-06-26T11:48:42.252Z,26.589
2023-06-26T11:49:41.172Z,26.187
2023-06-26T11:50:45.149Z,25.601
2023-06-26T11:51:41.103Z,26.227
2023-06-26T11:52:41.539Z,25.449
2023-06-26T11:53:40.934Z,26.065
2023-06-26T11:54:41.347Z,25.651
2023-06-26T11:55:41.036Z,24.955
2023-06-26T11:56:41.631Z,24.840
2023-06-26T11:57:41.063Z,24.579
2023-06-26T11:58:41.689Z,23.911
2023-06-26T11:59:41.215Z,24.438
2023-06-26T12:00:42.377Z,24.406
2023-06-26T12:01:41.043Z,24.177
2023-06-26T12:02:41.935Z,23.597
2023-06-26T12:03:41.604Z,23.374
2023-06-26T12:04:42.434Z,24.520
2023-06-26T12:05:41.649Z,25.603
2023-06-26T12:08:41.602Z,24.816
2023-06-26T12:09:41.013Z,24.461
2023-06-26T12:10:42.229Z,25.025
2023-06-26T12:12:41.447Z,24.947
2023-06-26T12:13:41.050Z,24.444
2023-06-26T12:14:41.920Z,24.310
2023-06-26T12:15:41.413Z,24.531
2023-06-26T12:16:41.863Z,25.445
2023-06-26T12:18:41.382Z,25.413
2023-06-26T12:19:41.899Z,26.206
2023-06-26T12:20:41.796Z,25.691
2023-06-26T12:21:41.345Z,25.685
2023-06-26T12:22:41.805Z,25.880
2023-06-26T12:23:41.255Z,26.008
2023-06-26T12:24:40.825Z,26.397
2023-06-26T12:25:41.324Z,26.240
2023-06-26T12:26:41.816Z,25.439
2023-06-26T12:27:41.416Z,25.666
2023-06-26T12:28:40.877Z,25.668
2023-06-26T12:29:41.316Z,25.538
2023-06-26T12:30:41.858Z,24.663
2023-06-26T12:32:41.303Z,24.037
2023-06-26T12:33:41.045Z,23.664
2023-06-26T12:34:41.559Z,23.635
2023-06-26T12:35:43.688Z,24.083
2023-06-26T12:36:41.189Z,24.930
2023-06-26T12:37:41.617Z,24.451
2023-06-26T12:38:41.072Z,24.854
2023-06-26T12:39:41.522Z,24.650
2023-06-26T12:40:41.745Z,23.881
2023-06-26T12:42:41.039Z,26.128
2023-06-26T12:43:41.540Z,26.406
2023-06-26T12:44:40.944Z,26.738
2023-06-26T12:45:42.788Z,26.437
2023-06-26T12:46:42.003Z,24.940
2023-06-26T12:48:41.413Z,24.930
2023-06-26T12:49:42.056Z,25.544
2023-06-26T12:50:41.952Z,25.724
2023-06-26T12:51:41.450Z,26.309
2023-06-26T12:52:40.902Z,26.113
2023-06-26T12:53:42.768Z,26.609
2023-06-26T12:56:41.283Z,27.703
2023-06-26T12:57:41.772Z,28.001
2023-06-26T12:58:41.523Z,28.176
2023-06-26T12:59:41.006Z,27.598
2023-06-26T13:00:42.504Z,27.064
2023-06-26T13:01:41.344Z,27.101
2023-06-26T13:02:41.484Z,27.503
2023-06-26T13:03:43.373Z,26.132
2023-06-26T13:04:41.402Z,26.939
2023-06-26T13:05:41.928Z,26.128
2023-06-26T13:06:41.346Z,26.366
2023-06-26T13:07:40.952Z,26.364
2023-06-26T13:08:41.404Z,25.228
2023-06-26T13:09:41.882Z,25.731
2023-06-26T13:10:42.305Z,25.313
2023-06-26T13:11:41.814Z,26.416
2023-06-26T13:13:41.655Z,26.504
2023-06-26T13:15:40.944Z,27.005
2023-06-26T13:16:41.572Z,28.056
2023-06-26T13:17:41.398Z,27.692
2023-06-26T13:18:40.970Z,27.961
2023-06-26T13:20:41.573Z,26.555
2023-06-26T13:23:41.176Z,29.088
2023-06-26T13:24:41.652Z,28.714
2023-06-26T13:25:41.113Z,28.901
2023-06-26T13:26:46.468Z,28.682
2023-06-26T13:28:41.284Z,28.522
2023-06-26T13:29:41.824Z,27.928
2023-06-26T13:30:41.888Z,28.827
2023-06-26T13:31:42.379Z,30.385
2023-06-26T13:32:41.260Z,31.030
2023-06-26T13:33:41.795Z,31.821
2023-06-26T13:34:41.165Z,31.119
2023-06-26T13:35:41.601Z,29.863
2023-06-26T13:36:41.151Z,29.227
2023-06-26T13:37:41.718Z,29.920
2023-06-26T13:41:41.040Z,30.261
2023-06-26T13:42:43.328Z,30.692
2023-06-26T13:43:42.305Z,31.200
2023-06-26T13:45:00.328Z,31.388
2023-06-26T13:46:41.996Z,32.233
2023-06-26T13:47:41.858Z,32.003
2023-06-26T13:48:41.551Z,32.071
2023-06-26T13:49:40.950Z,32.289
2023-06-26T13:50:56.415Z,32.300
2023-06-26T13:51:41.431Z,31.831
2023-06-26T13:52:41.855Z,31.613
2023-06-26T13:53:41.361Z,31.493
2023-06-26T13:54:40.910Z,31.694
2023-06-26T13:55:41.342Z,31.636
2023-06-26T13:56:40.937Z,31.579
2023-06-26T13:57:41.420Z,31.530
2023-06-26T13:58:40.889Z,31.076
2023-06-26T13:59:41.397Z,31.715
2023-06-26T14:00:42.325Z,32.359
2023-06-26T14:01:41.616Z,32.781
2023-06-26T14:02:41.879Z,32.357
2023-06-26T14:03:42.661Z,32.979
2023-06-26T14:04:41.277Z,33.406
2023-06-26T14:05:47.663Z,33.569
2023-06-26T14:06:41.113Z,33.813
2023-06-26T14:07:42.018Z,33.858
2023-06-26T14:08:41.566Z,34.469
2023-06-26T14:09:41.015Z,34.301
2023-06-26T14:10:42.886Z,33.698
2023-06-26T14:12:40.909Z,32.975